sensor_id;sensor_type;location;lat;lon;timestamp;P1;durP1;ratioP1;P2;durP2;ratioP2
33367;SDS011;19724;51.114;13.906;2023-04-24T00:00:54;9.15;;;5.85;;
33367;SDS011;19724;51.114;13.906;2023-04-24T00:03:21;8.35;;;5.47;;
33367;SDS011;19724;51.114;13.906;2023-04-24T00:05:50;14.60;;;7.10;;
33367;SDS011;19724;51.114;13.906;2023-04-24T00:08:17;10.23;;;6.10;;
33367;SDS011;19724;51.114;13.906;2023-04-24T00:10:42;9.13;;;5.35;;
33367;SDS011;19724;51.114;13.906;2023-04-24T00:13:08;8.75;;;5.32;;
33367;SDS011;19724;51.114;13.906;2023-04-24T00:15:34;11.60;;;6.43;;
33367;SDS011;19724;51.114;13.906;2023-04-24T00:17:59;9.60;;;5.90;;
33367;SDS011;19724;51.114;13.906;2023-04-24T00:20:26;9.48;;;6.20;;
33367;SDS011;19724;51.114;13.906;2023-04-24T00:22:54;9.18;;;6.07;;
33367;SDS011;19724;51.114;13.906;2023-04-24T00:25:20;8.80;;;5.60;;
33367;SDS011;19724;51.114;13.906;2023-04-24T00:27:45;10.15;;;6.60;;
33367;SDS011;19724;51.114;13.906;2023-04-24T00:30:11;11.13;;;7.22;;
33367;SDS011;19724;51.114;13.906;2023-04-24T00:32:36;7.63;;;6.22;;
33367;SDS011;19724;51.114;13.906;2023-04-24T00:35:02;10.38;;;6.18;;
33367;SDS011;19724;51.114;13.906;2023-04-24T00:37:27;7.43;;;5.60;;
33367;SDS011;19724;51.114;13.906;2023-04-24T00:39:53;9.45;;;5.38;;
33367;SDS011;19724;51.114;13.906;2023-04-24T00:42:19;8.70;;;6.47;;
33367;SDS011;19724;51.114;13.906;2023-04-24T00:44:45;9.20;;;6.60;;
33367;SDS011;19724;51.114;13.906;2023-04-24T00:47:11;8.20;;;6.13;;
33367;SDS011;19724;51.114;13.906;2023-04-24T00:49:38;8.13;;;5.57;;
33367;SDS011;19724;51.114;13.906;2023-04-24T00:52:03;11.30;;;5.93;;
33367;SDS011;19724;51.114;13.906;2023-04-24T00:54:32;13.38;;;8.38;;
33367;SDS011;19724;51.114;13.906;2023-04-24T00:56:58;9.40;;;6.15;;
33367;SDS011;19724;51.114;13.906;2023-04-24T00:59:23;8.38;;;6.18;;
33367;SDS011;19724;51.114;13.906;2023-04-24T01:01:49;11.82;;;7.07;;
33367;SDS011;19724;51.114;13.906;2023-04-24T01:04:16;10.18;;;6.95;;
33367;SDS011;19724;51.114;13.906;2023-04-24T01:06:42;11.60;;;6.82;;
33367;SDS011;19724;51.114;13.906;2023-04-24T01:09:09;9.32;;;7.43;;
33367;SDS011;19724;51.114;13.906;2023-04-24T01:11:36;14.10;;;7.75;;
33367;SDS011;19724;51.114;13.906;2023-04-24T01:14:02;12.07;;;6.20;;
33367;SDS011;19724;51.114;13.906;2023-04-24T01:16:28;8.90;;;6.10;;
33367;SDS011;19724;51.114;13.906;2023-04-24T01:18:53;9.05;;;6.50;;
33367;SDS011;19724;51.114;13.906;2023-04-24T01:21:19;8.43;;;6.50;;
33367;SDS011;19724;51.114;13.906;2023-04-24T01:23:46;8.90;;;6.47;;
33367;SDS011;19724;51.114;13.906;2023-04-24T01:26:12;9.63;;;6.95;;
33367;SDS011;19724;51.114;13.906;2023-04-24T01:28:41;10.57;;;7.22;;
33367;SDS011;19724;51.114;13.906;2023-04-24T01:31:07;11.75;;;6.93;;
33367;SDS011;19724;51.114;13.906;2023-04-24T01:33:33;11.52;;;7.25;;
33367;SDS011;19724;51.114;13.906;2023-04-24T01:35:58;8.52;;;6.93;;
33367;SDS011;19724;51.114;13.906;2023-04-24T01:38:24;9.70;;;6.65;;
33367;SDS011;19724;51.114;13.906;2023-04-24T01:40:50;8.32;;;5.82;;
33367;SDS011;19724;51.114;13.906;2023-04-24T01:43:16;10.40;;;7.07;;
33367;SDS011;19724;51.114;13.906;2023-04-24T01:45:42;9.88;;;5.85;;
33367;SDS011;19724;51.114;13.906;2023-04-24T01:48:08;11.75;;;7.60;;
33367;SDS011;19724;51.114;13.906;2023-04-24T01:50:34;11.98;;;7.35;;
33367;SDS011;19724;51.114;13.906;2023-04-24T01:52:59;11.82;;;6.85;;
33367;SDS011;19724;51.114;13.906;2023-04-24T01:55:25;8.25;;;5.93;;
33367;SDS011;19724;51.114;13.906;2023-04-24T01:57:52;12.27;;;6.88;;
33367;SDS011;19724;51.114;13.906;2023-04-24T02:00:19;11.02;;;8.02;;
33367;SDS011;19724;51.114;13.906;2023-04-24T02:02:45;9.40;;;5.93;;
33367;SDS011;19724;51.114;13.906;2023-04-24T02:05:10;10.60;;;7.18;;
33367;SDS011;19724;51.114;13.906;2023-04-24T02:07:36;10.88;;;6.38;;
33367;SDS011;19724;51.114;13.906;2023-04-24T02:10:02;9.65;;;6.90;;
33367;SDS011;19724;51.114;13.906;2023-04-24T02:12:29;8.98;;;6.63;;
33367;SDS011;19724;51.114;13.906;2023-04-24T02:14:54;9.18;;;6.72;;
33367;SDS011;19724;51.114;13.906;2023-04-24T02:17:20;10.30;;;6.43;;
33367;SDS011;19724;51.114;13.906;2023-04-24T02:19:46;12.77;;;6.65;;
33367;SDS011;19724;51.114;13.906;2023-04-24T02:22:11;11.65;;;7.78;;
33367;SDS011;19724;51.114;13.906;2023-04-24T02:24:37;10.27;;;6.25;;
33367;SDS011;19724;51.114;13.906;2023-04-24T02:27:03;11.35;;;6.63;;
33367;SDS011;19724;51.114;13.906;2023-04-24T02:29:29;10.55;;;6.68;;
33367;SDS011;19724;51.114;13.906;2023-04-24T02:31:55;13.02;;;6.55;;
33367;SDS011;19724;51.114;13.906;2023-04-24T02:34:20;13.32;;;6.15;;
33367;SDS011;19724;51.114;13.906;2023-04-24T02:36:46;11.73;;;6.88;;
33367;SDS011;19724;51.114;13.906;2023-04-24T02:39:11;11.05;;;6.72;;
33367;SDS011;19724;51.114;13.906;2023-04-24T02:41:38;8.63;;;6.82;;
33367;SDS011;19724;51.114;13.906;2023-04-24T02:44:03;11.15;;;7.82;;
33367;SDS011;19724;51.114;13.906;2023-04-24T02:46:29;9.95;;;6.68;;
33367;SDS011;19724;51.114;13.906;2023-04-24T02:48:55;9.52;;;6.95;;
33367;SDS011;19724;51.114;13.906;2023-04-24T02:51:20;14.25;;;8.50;;
33367;SDS011;19724;51.114;13.906;2023-04-24T02:53:45;10.55;;;7.50;;
33367;SDS011;19724;51.114;13.906;2023-04-24T02:56:11;11.40;;;7.95;;
33367;SDS011;19724;51.114;13.906;2023-04-24T02:58:39;12.70;;;7.68;;
33367;SDS011;19724;51.114;13.906;2023-04-24T03:01:05;8.32;;;6.65;;
33367;SDS011;19724;51.114;13.906;2023-04-24T03:03:30;10.02;;;6.45;;
33367;SDS011;19724;51.114;13.906;2023-04-24T03:05:56;9.85;;;6.82;;
33367;SDS011;19724;51.114;13.906;2023-04-24T03:08:22;9.77;;;6.22;;
33367;SDS011;19724;51.114;13.906;2023-04-24T03:10:47;11.98;;;7.28;;
33367;SDS011;19724;51.114;13.906;2023-04-24T03:13:13;10.18;;;7.03;;
33367;SDS011;19724;51.114;13.906;2023-04-24T03:15:40;9.77;;;6.60;;
33367;SDS011;19724;51.114;13.906;2023-04-24T03:18:06;12.73;;;7.45;;
33367;SDS011;19724;51.114;13.906;2023-04-24T03:20:31;11.43;;;6.15;;
33367;SDS011;19724;51.114;13.906;2023-04-24T03:22:56;9.20;;;7.03;;
33367;SDS011;19724;51.114;13.906;2023-04-24T03:25:22;10.90;;;7.55;;
33367;SDS011;19724;51.114;13.906;2023-04-24T03:27:47;9.23;;;7.05;;
33367;SDS011;19724;51.114;13.906;2023-04-24T03:30:13;9.75;;;7.60;;
33367;SDS011;19724;51.114;13.906;2023-04-24T03:32:38;12.20;;;6.57;;
33367;SDS011;19724;51.114;13.906;2023-04-24T03:35:05;11.23;;;8.18;;
33367;SDS011;19724;51.114;13.906;2023-04-24T03:37:34;11.52;;;7.47;;
33367;SDS011;19724;51.114;13.906;2023-04-24T03:40:00;15.93;;;7.43;;
33367;SDS011;19724;51.114;13.906;2023-04-24T03:42:26;11.48;;;6.90;;
33367;SDS011;19724;51.114;13.906;2023-04-24T03:44:51;11.10;;;6.97;;
33367;SDS011;19724;51.114;13.906;2023-04-24T03:47:17;10.30;;;7.38;;
33367;SDS011;19724;51.114;13.906;2023-04-24T03:49:42;13.18;;;6.32;;
33367;SDS011;19724;51.114;13.906;2023-04-24T03:52:08;11.45;;;6.78;;
33367;SDS011;19724;51.114;13.906;2023-04-24T03:54:33;9.68;;;6.25;;
33367;SDS011;19724;51.114;13.906;2023-04-24T03:56:59;12.38;;;7.70;;
33367;SDS011;19724;51.114;13.906;2023-04-24T03:59:25;10.48;;;6.63;;
33367;SDS011;19724;51.114;13.906;2023-04-24T04:01:50;11.02;;;6.90;;
33367;SDS011;19724;51.114;13.906;2023-04-24T04:04:15;16.17;;;7.25;;
33367;SDS011;19724;51.114;13.906;2023-04-24T04:06:41;11.73;;;6.80;;
33367;SDS011;19724;51.114;13.906;2023-04-24T04:09:07;11.13;;;6.95;;
33367;SDS011;19724;51.114;13.906;2023-04-24T04:11:33;8.68;;;6.40;;
33367;SDS011;19724;51.114;13.906;2023-04-24T04:14:00;9.45;;;5.80;;
33367;SDS011;19724;51.114;13.906;2023-04-24T04:16:25;4.95;;;3.60;;
33367;SDS011;19724;51.114;13.906;2023-04-24T04:18:51;5.10;;;3.13;;
33367;SDS011;19724;51.114;13.906;2023-04-24T04:21:16;4.70;;;2.80;;
33367;SDS011;19724;51.114;13.906;2023-04-24T04:23:42;3.80;;;2.50;;
33367;SDS011;19724;51.114;13.906;2023-04-24T04:26:07;6.30;;;2.85;;
33367;SDS011;19724;51.114;13.906;2023-04-24T04:28:33;4.18;;;2.70;;
33367;SDS011;19724;51.114;13.906;2023-04-24T04:30:58;4.82;;;2.20;;
33367;SDS011;19724;51.114;13.906;2023-04-24T04:33:24;4.85;;;2.30;;
33367;SDS011;19724;51.114;13.906;2023-04-24T04:35:50;3.88;;;2.08;;
33367;SDS011;19724;51.114;13.906;2023-04-24T04:38:17;4.38;;;2.42;;
33367;SDS011;19724;51.114;13.906;2023-04-24T04:40:43;4.80;;;2.03;;
33367;SDS011;19724;51.114;13.906;2023-04-24T04:43:09;5.25;;;1.70;;
33367;SDS011;19724;51.114;13.906;2023-04-24T04:48:28;6.30;;;1.83;;
33367;SDS011;19724;51.114;13.906;2023-04-24T04:50:56;5.00;;;1.80;;
33367;SDS011;19724;51.114;13.906;2023-04-24T04:53:21;4.18;;;1.88;;
33367;SDS011;19724;51.114;13.906;2023-04-24T04:55:47;3.60;;;1.48;;
33367;SDS011;19724;51.114;13.906;2023-04-24T04:58:12;4.95;;;1.67;;
33367;SDS011;19724;51.114;13.906;2023-04-24T05:00:38;4.72;;;1.95;;
33367;SDS011;19724;51.114;13.906;2023-04-24T05:03:04;5.28;;;1.85;;
33367;SDS011;19724;51.114;13.906;2023-04-24T05:05:30;3.70;;;2.05;;
33367;SDS011;19724;51.114;13.906;2023-04-24T05:07:55;4.82;;;1.60;;
33367;SDS011;19724;51.114;13.906;2023-04-24T05:10:21;4.95;;;1.80;;
33367;SDS011;19724;51.114;13.906;2023-04-24T05:12:46;5.93;;;1.50;;
33367;SDS011;19724;51.114;13.906;2023-04-24T05:15:11;4.72;;;1.50;;
33367;SDS011;19724;51.114;13.906;2023-04-24T05:17:37;5.15;;;2.10;;
33367;SDS011;19724;51.114;13.906;2023-04-24T05:20:04;2.33;;;1.30;;
33367;SDS011;19724;51.114;13.906;2023-04-24T05:22:31;3.85;;;1.60;;
33367;SDS011;19724;51.114;13.906;2023-04-24T05:24:56;3.22;;;1.38;;
33367;SDS011;19724;51.114;13.906;2023-04-24T05:27:22;2.15;;;1.38;;
33367;SDS011;19724;51.114;13.906;2023-04-24T05:29:48;4.18;;;1.33;;
33367;SDS011;19724;51.114;13.906;2023-04-24T05:32:13;4.00;;;1.55;;
33367;SDS011;19724;51.114;13.906;2023-04-24T05:34:39;5.38;;;1.52;;
33367;SDS011;19724;51.114;13.906;2023-04-24T05:37:04;3.80;;;1.58;;
33367;SDS011;19724;51.114;13.906;2023-04-24T05:39:33;2.95;;;1.35;;
33367;SDS011;19724;51.114;13.906;2023-04-24T05:41:59;4.60;;;1.40;;
33367;SDS011;19724;51.114;13.906;2023-04-24T05:44:26;4.72;;;1.23;;
33367;SDS011;19724;51.114;13.906;2023-04-24T05:46:52;3.28;;;1.20;;
33367;SDS011;19724;51.114;13.906;2023-04-24T05:49:18;3.67;;;1.00;;
33367;SDS011;19724;51.114;13.906;2023-04-24T05:51:43;2.17;;;1.27;;
33367;SDS011;19724;51.114;13.906;2023-04-24T05:54:08;5.35;;;1.60;;
33367;SDS011;19724;51.114;13.906;2023-04-24T05:56:36;3.58;;;1.75;;
33367;SDS011;19724;51.114;13.906;2023-04-24T05:59:02;1.95;;;1.20;;
33367;SDS011;19724;51.114;13.906;2023-04-24T06:01:28;3.50;;;1.60;;
33367;SDS011;19724;51.114;13.906;2023-04-24T06:03:54;4.47;;;1.65;;
33367;SDS011;19724;51.114;13.906;2023-04-24T06:06:20;4.10;;;1.52;;
33367;SDS011;19724;51.114;13.906;2023-04-24T06:08:45;3.28;;;1.30;;
33367;SDS011;19724;51.114;13.906;2023-04-24T06:11:11;5.50;;;1.50;;
33367;SDS011;19724;51.114;13.906;2023-04-24T06:13:36;2.55;;;1.15;;
33367;SDS011;19724;51.114;13.906;2023-04-24T06:16:02;2.92;;;1.40;;
33367;SDS011;19724;51.114;13.906;2023-04-24T06:18:27;3.17;;;1.48;;
33367;SDS011;19724;51.114;13.906;2023-04-24T06:20:53;2.45;;;1.05;;
33367;SDS011;19724;51.114;13.906;2023-04-24T06:23:20;3.10;;;1.50;;
33367;SDS011;19724;51.114;13.906;2023-04-24T06:25:45;2.88;;;1.10;;
33367;SDS011;19724;51.114;13.906;2023-04-24T06:28:10;2.20;;;1.10;;
33367;SDS011;19724;51.114;13.906;2023-04-24T06:30:36;6.22;;;1.45;;
33367;SDS011;19724;51.114;13.906;2023-04-24T06:33:02;5.28;;;1.52;;
33367;SDS011;19724;51.114;13.906;2023-04-24T06:35:27;5.68;;;1.40;;
33367;SDS011;19724;51.114;13.906;2023-04-24T06:37:53;4.15;;;1.58;;
33367;SDS011;19724;51.114;13.906;2023-04-24T06:40:21;2.08;;;1.20;;
33367;SDS011;19724;51.114;13.906;2023-04-24T06:42:46;4.50;;;1.38;;
33367;SDS011;19724;51.114;13.906;2023-04-24T06:45:12;5.18;;;1.45;;
33367;SDS011;19724;51.114;13.906;2023-04-24T06:47:37;3.05;;;1.50;;
33367;SDS011;19724;51.114;13.906;2023-04-24T06:50:03;5.10;;;1.40;;
33367;SDS011;19724;51.114;13.906;2023-04-24T06:52:29;3.90;;;1.10;;
33367;SDS011;19724;51.114;13.906;2023-04-24T06:55:01;2.72;;;1.10;;
33367;SDS011;19724;51.114;13.906;2023-04-24T06:57:30;4.18;;;1.50;;
33367;SDS011;19724;51.114;13.906;2023-04-24T06:59:56;5.05;;;1.25;;
33367;SDS011;19724;51.114;13.906;2023-04-24T07:02:21;4.15;;;1.00;;
33367;SDS011;19724;51.114;13.906;2023-04-24T07:04:47;5.93;;;1.13;;
33367;SDS011;19724;51.114;13.906;2023-04-24T07:07:13;3.33;;;1.02;;
33367;SDS011;19724;51.114;13.906;2023-04-24T07:09:39;2.85;;;1.20;;
33367;SDS011;19724;51.114;13.906;2023-04-24T07:12:09;3.17;;;1.50;;
33367;SDS011;19724;51.114;13.906;2023-04-24T07:14:38;4.00;;;1.05;;
33367;SDS011;19724;51.114;13.906;2023-04-24T07:17:04;3.33;;;1.10;;
33367;SDS011;19724;51.114;13.906;2023-04-24T07:19:30;3.38;;;1.13;;
33367;SDS011;19724;51.114;13.906;2023-04-24T07:21:56;4.05;;;1.02;;
33367;SDS011;19724;51.114;13.906;2023-04-24T07:24:23;3.83;;;1.63;;
33367;SDS011;19724;51.114;13.906;2023-04-24T07:26:49;2.40;;;1.02;;
33367;SDS011;19724;51.114;13.906;2023-04-24T07:29:16;3.97;;;0.90;;
33367;SDS011;19724;51.114;13.906;2023-04-24T07:31:42;2.08;;;0.77;;
33367;SDS011;19724;51.114;13.906;2023-04-24T07:34:08;1.90;;;0.73;;
33367;SDS011;19724;51.114;13.906;2023-04-24T07:36:33;3.67;;;0.75;;
33367;SDS011;19724;51.114;13.906;2023-04-24T07:38:59;3.40;;;0.57;;
33367;SDS011;19724;51.114;13.906;2023-04-24T07:41:24;2.53;;;0.73;;
33367;SDS011;19724;51.114;13.906;2023-04-24T07:43:50;5.53;;;1.20;;
33367;SDS011;19724;51.114;13.906;2023-04-24T07:46:15;1.10;;;0.68;;
33367;SDS011;19724;51.114;13.906;2023-04-24T07:48:41;1.38;;;0.65;;
33367;SDS011;19724;51.114;13.906;2023-04-24T07:51:07;2.00;;;0.70;;
33367;SDS011;19724;51.114;13.906;2023-04-24T07:53:35;2.47;;;0.80;;
33367;SDS011;19724;51.114;13.906;2023-04-24T07:56:00;2.03;;;0.80;;
33367;SDS011;19724;51.114;13.906;2023-04-24T07:58:25;1.55;;;0.63;;
33367;SDS011;19724;51.114;13.906;2023-04-24T08:00:51;2.10;;;0.70;;
33367;SDS011;19724;51.114;13.906;2023-04-24T08:03:16;2.80;;;0.88;;
33367;SDS011;19724;51.114;13.906;2023-04-24T08:05:44;2.65;;;0.70;;
33367;SDS011;19724;51.114;13.906;2023-04-24T08:08:09;1.65;;;0.82;;
33367;SDS011;19724;51.114;13.906;2023-04-24T08:10:35;4.00;;;1.08;;
33367;SDS011;19724;51.114;13.906;2023-04-24T08:13:00;1.00;;;0.73;;
33367;SDS011;19724;51.114;13.906;2023-04-24T08:15:27;2.17;;;0.93;;
33367;SDS011;19724;51.114;13.906;2023-04-24T08:17:52;2.45;;;0.88;;
33367;SDS011;19724;51.114;13.906;2023-04-24T08:20:18;2.30;;;0.70;;
33367;SDS011;19724;51.114;13.906;2023-04-24T08:22:43;1.98;;;0.68;;
33367;SDS011;19724;51.114;13.906;2023-04-24T08:25:12;2.05;;;0.80;;
33367;SDS011;19724;51.114;13.906;2023-04-24T08:27:37;3.10;;;0.80;;
33367;SDS011;19724;51.114;13.906;2023-04-24T08:30:04;1.20;;;0.70;;
33367;SDS011;19724;51.114;13.906;2023-04-24T08:32:30;2.10;;;0.70;;
33367;SDS011;19724;51.114;13.906;2023-04-24T08:34:56;3.55;;;0.98;;
33367;SDS011;19724;51.114;13.906;2023-04-24T08:37:22;4.45;;;1.27;;
33367;SDS011;19724;51.114;13.906;2023-04-24T08:39:48;3.33;;;0.80;;
33367;SDS011;19724;51.114;13.906;2023-04-24T08:42:15;4.93;;;1.25;;
33367;SDS011;19724;51.114;13.906;2023-04-24T08:44:41;3.25;;;0.90;;
33367;SDS011;19724;51.114;13.906;2023-04-24T08:47:07;2.35;;;0.90;;
33367;SDS011;19724;51.114;13.906;2023-04-24T08:49:33;7.68;;;0.93;;
33367;SDS011;19724;51.114;13.906;2023-04-24T08:52:00;2.75;;;0.90;;
33367;SDS011;19724;51.114;13.906;2023-04-24T08:54:27;4.03;;;1.48;;
33367;SDS011;19724;51.114;13.906;2023-04-24T08:56:54;3.05;;;0.90;;
33367;SDS011;19724;51.114;13.906;2023-04-24T08:59:26;2.33;;;0.65;;
33367;SDS011;19724;51.114;13.906;2023-04-24T09:01:52;3.95;;;0.80;;
33367;SDS011;19724;51.114;13.906;2023-04-24T09:04:19;3.33;;;1.20;;
33367;SDS011;19724;51.114;13.906;2023-04-24T09:06:47;6.60;;;2.00;;
33367;SDS011;19724;51.114;13.906;2023-04-24T09:09:14;2.88;;;0.98;;
33367;SDS011;19724;51.114;13.906;2023-04-24T09:11:42;4.53;;;1.15;;
33367;SDS011;19724;51.114;13.906;2023-04-24T09:14:09;3.85;;;0.90;;
33367;SDS011;19724;51.114;13.906;2023-04-24T09:16:35;2.15;;;0.75;;
33367;SDS011;19724;51.114;13.906;2023-04-24T09:19:01;3.58;;;1.20;;
33367;SDS011;19724;51.114;13.906;2023-04-24T09:21:30;4.85;;;1.08;;
33367;SDS011;19724;51.114;13.906;2023-04-24T09:23:58;2.00;;;0.70;;
33367;SDS011;19724;51.114;13.906;2023-04-24T09:26:24;2.88;;;0.75;;
33367;SDS011;19724;51.114;13.906;2023-04-24T09:28:50;3.65;;;1.20;;
33367;SDS011;19724;51.114;13.906;2023-04-24T09:31:17;1.33;;;0.60;;
33367;SDS011;19724;51.114;13.906;2023-04-24T09:33:53;2.42;;;0.90;;
33367;SDS011;19724;51.114;13.906;2023-04-24T09:36:30;2.15;;;0.70;;
33367;SDS011;19724;51.114;13.906;2023-04-24T09:39:03;0.88;;;0.60;;
33367;SDS011;19724;51.114;13.906;2023-04-24T09:41:43;1.93;;;0.80;;
33367;SDS011;19724;51.114;13.906;2023-04-24T09:44:19;3.63;;;1.55;;
33367;SDS011;19724;51.114;13.906;2023-04-24T09:46:50;4.00;;;0.95;;
33367;SDS011;19724;51.114;13.906;2023-04-24T09:49:30;2.95;;;0.98;;
33367;SDS011;19724;51.114;13.906;2023-04-24T09:52:04;3.83;;;1.20;;
33367;SDS011;19724;51.114;13.906;2023-04-24T09:54:30;2.20;;;1.08;;
33367;SDS011;19724;51.114;13.906;2023-04-24T09:56:56;2.83;;;0.90;;
33367;SDS011;19724;51.114;13.906;2023-04-24T09:59:22;4.13;;;0.88;;
33367;SDS011;19724;51.114;13.906;2023-04-24T10:01:47;3.85;;;0.90;;
33367;SDS011;19724;51.114;13.906;2023-04-24T10:04:18;1.80;;;0.82;;
33367;SDS011;19724;51.114;13.906;2023-04-24T10:06:45;1.92;;;0.80;;
33367;SDS011;19724;51.114;13.906;2023-04-24T10:09:12;4.28;;;1.17;;
33367;SDS011;19724;51.114;13.906;2023-04-24T10:11:41;1.80;;;0.80;;
33367;SDS011;19724;51.114;13.906;2023-04-24T10:14:12;2.17;;;0.85;;
33367;SDS011;19724;51.114;13.906;2023-04-24T10:16:39;1.83;;;0.70;;
33367;SDS011;19724;51.114;13.906;2023-04-24T10:19:05;1.58;;;0.80;;
33367;SDS011;19724;51.114;13.906;2023-04-24T10:21:31;2.53;;;1.05;;
33367;SDS011;19724;51.114;13.906;2023-04-24T10:23:59;2.72;;;1.00;;
33367;SDS011;19724;51.114;13.906;2023-04-24T10:26:28;1.83;;;0.82;;
33367;SDS011;19724;51.114;13.906;2023-04-24T10:28:53;2.97;;;0.90;;
33367;SDS011;19724;51.114;13.906;2023-04-24T10:31:22;1.52;;;0.85;;
33367;SDS011;19724;51.114;13.906;2023-04-24T10:33:47;1.60;;;0.60;;
33367;SDS011;19724;51.114;13.906;2023-04-24T10:36:16;3.45;;;0.90;;
33367;SDS011;19724;51.114;13.906;2023-04-24T10:38:42;1.27;;;0.63;;
33367;SDS011;19724;51.114;13.906;2023-04-24T10:41:11;3.53;;;1.58;;
33367;SDS011;19724;51.114;13.906;2023-04-24T10:44:06;2.63;;;0.70;;
33367;SDS011;19724;51.114;13.906;2023-04-24T10:46:33;3.95;;;0.70;;
33367;SDS011;19724;51.114;13.906;2023-04-24T10:48:59;2.28;;;0.70;;
33367;SDS011;19724;51.114;13.906;2023-04-24T10:51:50;2.28;;;0.73;;
33367;SDS011;19724;51.114;13.906;2023-04-24T10:54:25;2.58;;;0.70;;
33367;SDS011;19724;51.114;13.906;2023-04-24T10:56:50;1.05;;;0.55;;
33367;SDS011;19724;51.114;13.906;2023-04-24T10:59:26;2.45;;;0.77;;
33367;SDS011;19724;51.114;13.906;2023-04-24T11:01:53;2.28;;;0.70;;
33367;SDS011;19724;51.114;13.906;2023-04-24T11:04:30;1.77;;;0.60;;
33367;SDS011;19724;51.114;13.906;2023-04-24T11:06:56;2.80;;;0.90;;
33367;SDS011;19724;51.114;13.906;2023-04-24T11:09:22;3.53;;;1.15;;
33367;SDS011;19724;51.114;13.906;2023-04-24T11:11:52;1.92;;;0.70;;
33367;SDS011;19724;51.114;13.906;2023-04-24T11:20:05;2.88;;;1.02;;
33367;SDS011;19724;51.114;13.906;2023-04-24T11:22:36;1.85;;;0.73;;
33367;SDS011;19724;51.114;13.906;2023-04-24T11:25:03;2.35;;;1.13;;
33367;SDS011;19724;51.114;13.906;2023-04-24T11:27:30;2.05;;;1.00;;
33367;SDS011;19724;51.114;13.906;2023-04-24T11:32:27;3.50;;;0.77;;
33367;SDS011;19724;51.114;13.906;2023-04-24T11:34:54;1.13;;;0.82;;
33367;SDS011;19724;51.114;13.906;2023-04-24T11:37:22;3.53;;;0.85;;
33367;SDS011;19724;51.114;13.906;2023-04-24T11:39:58;2.30;;;0.60;;
33367;SDS011;19724;51.114;13.906;2023-04-24T11:42:24;1.45;;;0.80;;
33367;SDS011;19724;51.114;13.906;2023-04-24T11:44:52;2.45;;;0.80;;
33367;SDS011;19724;51.114;13.906;2023-04-24T11:47:18;3.97;;;0.80;;
33367;SDS011;19724;51.114;13.906;2023-04-24T11:49:43;3.28;;;1.00;;
33367;SDS011;19724;51.114;13.906;2023-04-24T11:52:09;1.30;;;0.90;;
33367;SDS011;19724;51.114;13.906;2023-04-24T11:54:35;1.95;;;0.65;;
33367;SDS011;19724;51.114;13.906;2023-04-24T11:57:03;1.83;;;0.50;;
33367;SDS011;19724;51.114;13.906;2023-04-24T11:59:35;1.25;;;0.70;;
33367;SDS011;19724;51.114;13.906;2023-04-24T12:02:01;6.40;;;1.10;;
33367;SDS011;19724;51.114;13.906;2023-04-24T12:04:27;4.70;;;1.38;;
33367;SDS011;19724;51.114;13.906;2023-04-24T12:07:06;2.13;;;0.60;;
33367;SDS011;19724;51.114;13.906;2023-04-24T12:09:40;3.17;;;0.85;;
33367;SDS011;19724;51.114;13.906;2023-04-24T12:12:10;1.48;;;0.73;;
33367;SDS011;19724;51.114;13.906;2023-04-24T12:14:51;2.63;;;0.70;;
33367;SDS011;19724;51.114;13.906;2023-04-24T12:17:23;2.15;;;0.90;;
33367;SDS011;19724;51.114;13.906;2023-04-24T12:19:52;1.98;;;1.00;;
33367;SDS011;19724;51.114;13.906;2023-04-24T12:22:21;3.72;;;0.70;;
33367;SDS011;19724;51.114;13.906;2023-04-24T12:24:59;1.15;;;0.55;;
33367;SDS011;19724;51.114;13.906;2023-04-24T12:27:30;3.13;;;0.65;;
33367;SDS011;19724;51.114;13.906;2023-04-24T12:29:57;1.20;;;0.75;;
33367;SDS011;19724;51.114;13.906;2023-04-24T12:32:24;3.88;;;0.70;;
33367;SDS011;19724;51.114;13.906;2023-04-24T12:34:50;2.33;;;0.85;;
33367;SDS011;19724;51.114;13.906;2023-04-24T12:37:17;1.92;;;0.85;;
33367;SDS011;19724;51.114;13.906;2023-04-24T12:42:25;1.50;;;0.82;;
33367;SDS011;19724;51.114;13.906;2023-04-24T12:44:55;1.73;;;0.80;;
33367;SDS011;19724;51.114;13.906;2023-04-24T12:47:23;3.58;;;0.90;;
33367;SDS011;19724;51.114;13.906;2023-04-24T12:49:49;2.85;;;1.10;;
33367;SDS011;19724;51.114;13.906;2023-04-24T12:52:17;2.85;;;0.85;;
33367;SDS011;19724;51.114;13.906;2023-04-24T12:54:46;2.08;;;1.05;;
33367;SDS011;19724;51.114;13.906;2023-04-24T12:57:12;5.63;;;1.25;;
33367;SDS011;19724;51.114;13.906;2023-04-24T12:59:37;1.58;;;0.90;;
33367;SDS011;19724;51.114;13.906;2023-04-24T13:02:04;2.15;;;0.88;;
33367;SDS011;19724;51.114;13.906;2023-04-24T13:04:30;3.90;;;1.17;;
33367;SDS011;19724;51.114;13.906;2023-04-24T13:06:55;4.50;;;1.23;;
33367;SDS011;19724;51.114;13.906;2023-04-24T13:09:21;1.52;;;0.90;;
33367;SDS011;19724;51.114;13.906;2023-04-24T13:11:46;6.22;;;0.90;;
33367;SDS011;19724;51.114;13.906;2023-04-24T13:14:12;2.95;;;1.30;;
33367;SDS011;19724;51.114;13.906;2023-04-24T13:16:37;1.33;;;0.82;;
33367;SDS011;19724;51.114;13.906;2023-04-24T13:19:03;2.08;;;0.90;;
33367;SDS011;19724;51.114;13.906;2023-04-24T13:21:29;2.17;;;1.00;;
33367;SDS011;19724;51.114;13.906;2023-04-24T13:23:55;4.80;;;0.93;;
33367;SDS011;19724;51.114;13.906;2023-04-24T13:26:20;6.10;;;1.02;;
33367;SDS011;19724;51.114;13.906;2023-04-24T13:28:46;1.95;;;0.80;;
33367;SDS011;19724;51.114;13.906;2023-04-24T13:31:12;2.17;;;0.82;;
33367;SDS011;19724;51.114;13.906;2023-04-24T13:33:38;2.25;;;1.00;;
33367;SDS011;19724;51.114;13.906;2023-04-24T13:36:04;2.92;;;0.90;;
33367;SDS011;19724;51.114;13.906;2023-04-24T13:38:29;2.00;;;1.10;;
33367;SDS011;19724;51.114;13.906;2023-04-24T13:40:55;1.40;;;1.00;;
33367;SDS011;19724;51.114;13.906;2023-04-24T13:43:20;1.70;;;0.90;;
33367;SDS011;19724;51.114;13.906;2023-04-24T13:45:46;2.40;;;1.05;;
33367;SDS011;19724;51.114;13.906;2023-04-24T13:48:11;2.30;;;1.10;;
33367;SDS011;19724;51.114;13.906;2023-04-24T13:50:40;2.85;;;1.25;;
33367;SDS011;19724;51.114;13.906;2023-04-24T13:53:06;3.42;;;1.05;;
33367;SDS011;19724;51.114;13.906;2023-04-24T13:55:31;11.65;;;2.58;;
33367;SDS011;19724;51.114;13.906;2023-04-24T13:57:57;4.05;;;0.95;;
33367;SDS011;19724;51.114;13.906;2023-04-24T14:00:23;4.00;;;1.10;;
33367;SDS011;19724;51.114;13.906;2023-04-24T14:02:48;1.92;;;0.80;;
33367;SDS011;19724;51.114;13.906;2023-04-24T14:05:14;5.00;;;1.40;;
33367;SDS011;19724;51.114;13.906;2023-04-24T14:07:40;2.28;;;1.00;;
33367;SDS011;19724;51.114;13.906;2023-04-24T14:10:06;3.17;;;0.80;;
33367;SDS011;19724;51.114;13.906;2023-04-24T14:12:33;3.50;;;1.00;;
33367;SDS011;19724;51.114;13.906;2023-04-24T14:14:59;1.70;;;1.00;;
33367;SDS011;19724;51.114;13.906;2023-04-24T14:17:25;1.10;;;0.88;;
33367;SDS011;19724;51.114;13.906;2023-04-24T14:19:50;1.55;;;1.00;;
33367;SDS011;19724;51.114;13.906;2023-04-24T14:22:17;4.07;;;1.83;;
33367;SDS011;19724;51.114;13.906;2023-04-24T14:24:42;2.20;;;1.08;;
33367;SDS011;19724;51.114;13.906;2023-04-24T14:27:08;2.70;;;1.20;;
33367;SDS011;19724;51.114;13.906;2023-04-24T14:29:33;2.40;;;0.80;;
33367;SDS011;19724;51.114;13.906;2023-04-24T14:31:59;2.03;;;1.02;;
33367;SDS011;19724;51.114;13.906;2023-04-24T14:34:24;3.42;;;1.77;;
33367;SDS011;19724;51.114;13.906;2023-04-24T14:36:50;1.52;;;0.80;;
33367;SDS011;19724;51.114;13.906;2023-04-24T14:39:15;4.40;;;1.08;;
33367;SDS011;19724;51.114;13.906;2023-04-24T14:41:41;1.92;;;1.00;;
33367;SDS011;19724;51.114;13.906;2023-04-24T14:44:06;1.40;;;0.80;;